Time;durP1;ratioP1;P1;durP2;ratioP2;P2;SDS_P1;SDS_P2;PMS_P1;PMS_P2;Temp;Humidity;BMP_temperature;BMP_pressure;BME280_temperature;BME280_humidity;BME280_pressure;Samples;Min_cycle;Max_cycle;Signal;HPM_P1;HPM_P2
2022/01/01 00:00:46;;;;;;;10.20;3.92;;;13.50;99.90;;;;;;5034077;28;20087;-62
2022/01/01 00:03:11;;;;;;;5.93;4.30;;;13.50;99.90;;;;;;5035007;28;20036;-61
2022/01/01 00:05:37;;;;;;;7.57;3.35;;;13.50;99.90;;;;;;5033926;28;20480;-61
2022/01/01 00:08:05;;;;;;;7.43;3.00;;;13.50;99.90;;;;;;5033729;28;20017;-62
2022/01/01 00:10:31;;;;;;;5.35;3.13;;;13.50;99.90;;;;;;5034917;28;20021;-61
2022/01/01 00:12:57;;;;;;;6.38;3.95;;;13.50;99.90;;;;;;5033559;28;20113;-61
2022/01/01 00:15:22;;;;;;;9.75;4.50;;;13.50;99.90;;;;;;5034941;28;20022;-61
2022/01/01 00:17:48;;;;;;;5.03;2.67;;;13.50;99.90;;;;;;5033383;28;20093;-61
2022/01/01 00:20:14;;;;;;;5.53;3.28;;;13.50;99.90;;;;;;5034868;28;20034;-61
2022/01/01 00:22:42;;;;;;;5.05;2.80;;;13.40;99.90;;;;;;5034679;28;20029;-60
2022/01/01 00:25:08;;;;;;;4.72;2.83;;;13.40;99.90;;;;;;5033477;28;20053;-62
2022/01/01 00:27:34;;;;;;;5.82;2.67;;;13.40;99.90;;;;;;5034496;28;20384;-60
2022/01/01 00:30:00;;;;;;;5.75;2.80;;;13.40;99.90;;;;;;5033373;28;20022;-61
2022/01/01 00:32:26;;;;;;;7.45;2.88;;;13.40;99.90;;;;;;5033232;28;20029;-61
2022/01/01 00:34:52;;;;;;;5.15;2.65;;;13.40;99.90;;;;;;5034696;28;20025;-61
2022/01/01 00:37:18;;;;;;;7.47;2.70;;;13.40;99.90;;;;;;5034532;28;20032;-62
2022/01/01 00:39:44;;;;;;;4.55;2.70;;;13.40;99.90;;;;;;5033545;28;20111;-61
2022/01/01 00:42:09;;;;;;;4.93;2.63;;;13.40;99.90;;;;;;5034516;28;20056;-61
2022/01/01 00:44:35;;;;;;;6.68;3.78;;;13.40;99.90;;;;;;5033726;28;20021;-60
2022/01/01 00:47:01;;;;;;;5.63;3.30;;;13.40;99.90;;;;;;5033328;28;20029;-62
2022/01/01 00:49:28;;;;;;;16.38;7.32;;;13.30;99.90;;;;;;5033361;28;20030;-61
2022/01/01 00:51:54;;;;;;;21.50;8.77;;;13.30;99.90;;;;;;5033363;28;20057;-61
2022/01/01 00:54:19;;;;;;;17.58;6.80;;;13.30;99.90;;;;;;5033243;28;20028;-61
2022/01/01 00:56:45;;;;;;;12.75;5.13;;;13.40;99.90;;;;;;5034605;28;20045;-61
2022/01/01 00:59:11;;;;;;;8.63;3.13;;;13.30;99.90;;;;;;5034239;28;20080;-61
2022/01/01 01:01:38;;;;;;;4.95;3.33;;;13.30;99.90;;;;;;5034558;28;20503;-61
2022/01/01 01:04:04;;;;;;;7.63;3.55;;;13.30;99.90;;;;;;5033374;28;20079;-62
2022/01/01 01:06:30;;;;;;;11.68;4.57;;;13.30;99.90;;;;;;5033026;28;20036;-62
2022/01/01 01:08:58;;;;;;;9.57;3.83;;;13.30;99.90;;;;;;5034248;28;20021;-62
2022/01/01 01:11:25;;;;;;;12.75;5.63;;;13.30;99.90;;;;;;5034661;28;20024;-61
2022/01/01 01:13:58;;;;;;;11.43;5.78;;;13.30;99.90;;;;;;5033307;28;20152;-62
2022/01/01 01:16:25;;;;;;;8.23;4.43;;;13.40;99.90;;;;;;5033864;28;20021;-62
2022/01/01 01:18:53;;;;;;;9.95;4.10;;;13.40;99.90;;;;;;5033485;28;20116;-62
2022/01/01 01:21:19;;;;;;;7.85;4.25;;;13.40;99.90;;;;;;5032862;28;20036;-62
2022/01/01 01:23:46;;;;;;;12.32;5.47;;;13.40;99.90;;;;;;5032489;28;20025;-62
2022/01/01 01:26:12;;;;;;;13.70;4.43;;;13.40;99.90;;;;;;5034107;28;20029;-61
2022/01/01 01:28:42;;;;;;;11.88;5.25;;;13.40;99.90;;;;;;5034042;28;20032;-62
2022/01/01 01:31:07;;;;;;;22.52;9.27;;;13.40;99.90;;;;;;5032626;28;20025;-62
2022/01/01 01:33:33;;;;;;;9.90;5.07;;;13.40;99.90;;;;;;5026244;28;20473;-62
2022/01/01 01:35:58;;;;;;;9.55;4.47;;;13.40;99.90;;;;;;5014174;28;20022;-62
2022/01/01 01:38:24;;;;;;;8.65;3.33;;;13.50;99.90;;;;;;5029785;28;20028;-61
2022/01/01 01:40:50;;;;;;;7.88;3.70;;;13.40;99.90;;;;;;5013038;28;20072;-62
2022/01/01 01:43:15;;;;;;;9.45;4.13;;;13.40;99.90;;;;;;5029606;28;20018;-62
2022/01/01 01:45:43;;;;;;;8.50;3.00;;;13.40;99.90;;;;;;5015646;28;20159;-61
2022/01/01 01:48:09;;;;;;;8.15;3.38;;;13.40;99.90;;;;;;5033219;28;20021;-61
2022/01/01 01:50:37;;;;;;;6.65;2.97;;;13.40;99.90;;;;;;5036436;28;20017;-61
2022/01/01 01:53:03;;;;;;;9.27;3.72;;;13.40;99.90;;;;;;5036398;28;20041;-60
2022/01/01 01:55:29;;;;;;;5.47;2.88;;;13.50;99.90;;;;;;5024269;28;20026;-61
2022/01/01 01:57:55;;;;;;;5.72;2.72;;;13.50;99.90;;;;;;5035442;28;20025;-61
2022/01/01 02:02:53;;;;;;;6.57;3.35;;;13.50;99.90;;;;;;5018009;28;20029;-61
2022/01/01 02:05:18;;;;;;;5.75;3.47;;;13.40;99.90;;;;;;5017533;28;20032;-61
2022/01/01 02:07:44;;;;;;;8.38;3.25;;;13.40;99.90;;;;;;5016548;28;20081;-61
2022/01/01 02:10:10;;;;;;;6.63;3.17;;;13.40;99.90;;;;;;5016337;28;20080;-61
2022/01/01 02:12:38;;;;;;;8.75;3.60;;;13.40;99.90;;;;;;5016247;28;20029;-61
2022/01/01 02:15:12;;;;;;;5.28;2.88;;;13.30;99.90;;;;;;5024084;28;20403;-61
2022/01/01 02:17:37;;;;;;;9.38;3.42;;;13.30;99.90;;;;;;5015388;28;20117;-61
2022/01/01 02:20:11;;;;;;;8.50;2.72;;;13.40;99.90;;;;;;5015427;28;20105;-60
2022/01/01 02:22:41;;;;;;;5.65;2.92;;;13.30;99.90;;;;;;5021097;28;20035;-61
2022/01/01 02:25:07;;;;;;;7.38;3.03;;;13.30;99.90;;;;;;5034517;28;20029;-61
2022/01/01 02:27:36;;;;;;;8.60;3.17;;;13.30;99.90;;;;;;5035357;28;20061;-61
2022/01/01 02:30:04;;;;;;;7.93;3.40;;;13.30;99.90;;;;;;5023307;28;20090;-61
2022/01/01 02:32:30;;;;;;;9.63;3.25;;;13.30;99.90;;;;;;5015523;28;20117;-61
2022/01/01 02:34:55;;;;;;;7.28;3.65;;;13.20;99.90;;;;;;5015883;28;20113;-59
2022/01/01 02:37:21;;;;;;;9.55;3.08;;;13.30;99.90;;;;;;5015562;28;20048;-61
2022/01/01 02:39:46;;;;;;;7.30;2.83;;;13.20;99.90;;;;;;5016698;28;20022;-60
2022/01/01 02:42:17;;;;;;;4.78;2.95;;;13.30;99.90;;;;;;5015496;28;20488;-60
2022/01/01 02:44:43;;;;;;;8.70;3.05;;;13.40;99.90;;;;;;5015491;28;20049;-61
2022/01/01 02:47:09;;;;;;;5.75;2.72;;;13.40;99.90;;;;;;5015707;28;20030;-61
2022/01/01 02:49:34;;;;;;;3.83;2.10;;;13.50;99.90;;;;;;5033263;28;20036;-61
2022/01/01 02:52:00;;;;;;;4.72;2.83;;;13.50;99.90;;;;;;5035089;28;20036;-61
2022/01/01 02:54:25;;;;;;;4.78;2.80;;;13.40;99.90;;;;;;5036341;28;20026;-61
2022/01/01 02:56:51;;;;;;;4.88;2.58;;;13.40;99.90;;;;;;5034989;28;20032;-60
2022/01/01 02:59:16;;;;;;;6.57;3.17;;;13.40;99.90;;;;;;5033646;28;20116;-61
2022/01/01 03:01:42;;;;;;;6.57;3.17;;;13.40;99.90;;;;;;5035913;28;20424;-60
2022/01/01 03:04:08;;;;;;;4.63;2.50;;;13.30;99.90;;;;;;5036347;28;20053;-61
2022/01/01 03:06:34;;;;;;;8.68;2.88;;;13.30;99.90;;;;;;5035912;28;20025;-61
2022/01/01 03:09:00;;;;;;;8.68;2.83;;;13.30;99.90;;;;;;5034980;28;20044;-61
2022/01/01 03:11:25;;;;;;;6.57;2.67;;;13.40;99.90;;;;;;5035940;28;20032;-61
2022/01/01 03:13:51;;;;;;;5.63;2.90;;;13.40;99.90;;;;;;5034584;28;20025;-61
2022/01/01 03:16:17;;;;;;;4.30;2.80;;;13.40;99.90;;;;;;5034636;28;20025;-61
2022/01/01 03:18:42;;;;;;;5.80;2.47;;;13.50;99.90;;;;;;5036306;28;20029;-61
2022/01/01 03:21:08;;;;;;;6.15;2.50;;;13.50;99.90;;;;;;5034644;28;20029;-61
2022/01/01 03:23:34;;;;;;;7.80;2.65;;;13.50;99.90;;;;;;5036116;28;20022;-60
2022/01/01 03:26:00;;;;;;;4.80;2.45;;;13.50;99.90;;;;;;5036012;28;20030;-61
2022/01/01 03:28:26;;;;;;;6.47;2.50;;;13.60;99.90;;;;;;5034205;28;20029;-61
2022/01/01 03:30:52;;;;;;;4.18;2.50;;;13.50;99.90;;;;;;5034358;28;20029;-60
2022/01/01 03:33:18;;;;;;;8.18;2.58;;;13.40;99.90;;;;;;5034356;28;20116;-59
2022/01/01 03:35:44;;;;;;;4.82;2.60;;;13.40;99.90;;;;;;5034340;28;20188;-61
2022/01/01 03:38:10;;;;;;;4.80;2.70;;;13.40;99.90;;;;;;5034429;28;20028;-61
2022/01/01 03:40:35;;;;;;;5.72;2.55;;;13.30;99.90;;;;;;5034139;28;20029;-61
2022/01/01 03:43:01;;;;;;;4.90;2.67;;;13.30;99.90;;;;;;5034817;28;20025;-61
2022/01/01 03:45:27;;;;;;;6.03;2.40;;;13.30;99.90;;;;;;5034687;28;20112;-61
2022/01/01 03:47:52;;;;;;;6.90;2.60;;;13.30;99.90;;;;;;5035494;28;20115;-61
2022/01/01 03:50:18;;;;;;;7.20;3.03;;;13.30;99.90;;;;;;5034005;28;20021;-61
2022/01/01 03:52:45;;;;;;;4.07;2.45;;;13.20;99.90;;;;;;5033973;28;20040;-61
2022/01/01 03:55:12;;;;;;;5.95;2.28;;;13.20;99.90;;;;;;5034273;28;20027;-60
2022/01/01 03:57:39;;;;;;;7.18;2.97;;;13.20;99.90;;;;;;5035176;28;20045;-61
2022/01/01 04:00:07;;;;;;;6.93;2.83;;;13.20;99.90;;;;;;5034106;28;20029;-61
2022/01/01 04:02:33;;;;;;;9.05;3.25;;;13.20;99.90;;;;;;5033760;28;20032;-61
2022/01/01 04:05:00;;;;;;;10.88;2.97;;;13.10;99.90;;;;;;5035117;28;20026;-61
2022/01/01 04:07:25;;;;;;;9.27;3.22;;;13.00;99.90;;;;;;5033613;28;20396;-59
2022/01/01 04:09:51;;;;;;;8.50;3.17;;;13.00;99.90;;;;;;5033759;28;20025;-58
2022/01/01 04:12:16;;;;;;;9.35;3.72;;;13.00;99.90;;;;;;5033275;28;20021;-58
2022/01/01 04:14:42;;;;;;;7.18;3.90;;;13.00;99.90;;;;;;5034006;28;20078;-61
2022/01/01 04:17:10;;;;;;;7.80;3.75;;;12.90;99.90;;;;;;5033412;28;20071;-61
2022/01/01 04:19:39;;;;;;;8.18;3.38;;;12.90;99.90;;;;;;5033786;28;20021;-59
2022/01/01 04:22:16;;;;;;;7.32;3.13;;;12.90;99.90;;;;;;5035248;28;20104;-61
2022/01/01 04:24:42;;;;;;;13.18;3.58;;;12.90;99.90;;;;;;5022750;28;20037;-61
2022/01/01 04:27:08;;;;;;;6.18;3.40;;;13.00;99.90;;;;;;5013861;28;20026;-61
2022/01/01 04:29:34;;;;;;;6.72;3.30;;;13.00;99.90;;;;;;5014884;28;20022;-61
2022/01/01 04:32:01;;;;;;;7.90;3.88;;;13.00;99.90;;;;;;5022236;28;20092;-61
2022/01/01 04:34:27;;;;;;;7.10;3.08;;;13.00;99.90;;;;;;5015011;28;20500;-61
2022/01/01 04:37:08;;;;;;;6.72;4.20;;;13.00;99.90;;;;;;5014635;28;20022;-61
2022/01/01 04:39:33;;;;;;;8.03;3.70;;;13.10;99.90;;;;;;5013551;28;20053;-61
2022/01/01 04:41:59;;;;;;;9.07;4.18;;;13.10;99.90;;;;;;5013359;28;20057;-61
2022/01/01 04:44:24;;;;;;;10.77;3.90;;;13.10;99.90;;;;;;5013869;28;20384;-61
2022/01/01 04:46:50;;;;;;;9.45;3.53;;;13.00;99.90;;;;;;5014015;28;20111;-61
2022/01/01 04:49:16;;;;;;;7.07;2.83;;;13.10;99.90;;;;;;5014576;28;20109;-59
2022/01/01 04:51:41;;;;;;;4.22;2.72;;;13.10;99.90;;;;;;5014391;28;20065;-61
2022/01/01 04:54:15;;;;;;;8.52;3.20;;;13.20;99.90;;;;;;5012949;28;20425;-61
2022/01/01 04:56:44;;;;;;;4.63;2.47;;;13.20;99.90;;;;;;5013089;28;20030;-61
2022/01/01 04:59:11;;;;;;;4.93;2.35;;;13.30;99.90;;;;;;5013159;28;20025;-61
2022/01/01 05:01:37;;;;;;;8.45;2.80;;;13.30;99.90;;;;;;5014516;28;20037;-61
2022/01/01 05:04:03;;;;;;;4.25;2.00;;;13.30;99.90;;;;;;5014127;28;20035;-61
2022/01/01 05:06:28;;;;;;;11.90;3.15;;;13.40;99.90;;;;;;5014024;28;20032;-59
2022/01/01 05:08:54;;;;;;;3.47;2.22;;;13.40;99.90;;;;;;5014317;28;20030;-61
2022/01/01 05:11:21;;;;;;;5.90;2.20;;;13.30;99.90;;;;;;5014167;28;20076;-61
2022/01/01 05:13:46;;;;;;;5.47;2.13;;;13.20;99.90;;;;;;5013917;28;20018;-61
2022/01/01 05:16:16;;;;;;;4.05;2.20;;;13.30;99.90;;;;;;5013917;28;20029;-61
2022/01/01 05:18:41;;;;;;;6.60;2.33;;;13.30;99.90;;;;;;5012619;28;20098;-59
2022/01/01 05:21:07;;;;;;;4.35;1.92;;;13.40;99.90;;;;;;5012834;28;20392;-61
2022/01/01 05:23:33;;;;;;;6.57;2.28;;;13.40;99.90;;;;;;5012330;28;20044;-61
2022/01/01 05:25:59;;;;;;;6.65;2.55;;;13.50;99.90;;;;;;5014274;28;20030;-61
2022/01/01 05:28:25;;;;;;;7.68;1.70;;;13.50;99.90;;;;;;5029216;28;20028;-61
2022/01/01 05:30:51;;;;;;;5.72;1.85;;;13.40;99.90;;;;;;5012999;28;20021;-61
2022/01/01 05:33:16;;;;;;;6.38;2.15;;;13.40;99.90;;;;;;5013186;28;20034;-59
2022/01/01 05:35:42;;;;;;;6.68;2.13;;;13.50;99.90;;;;;;5012747;28;20022;-60
2022/01/01 05:38:08;;;;;;;11.52;2.97;;;13.50;99.90;;;;;;5012954;28;20022;-61
2022/01/01 05:40:34;;;;;;;4.63;2.30;;;13.50;99.90;;;;;;5012860;28;20061;-61
2022/01/01 05:42:59;;;;;;;7.70;3.03;;;13.50;99.90;;;;;;5014662;28;20026;-61
2022/01/01 05:45:25;;;;;;;6.90;2.25;;;13.40;99.90;;;;;;5029545;28;20057;-59
2022/01/01 05:47:51;;;;;;;4.43;2.30;;;13.40;99.90;;;;;;5014325;28;20037;-61
2022/01/01 05:50:22;;;;;;;6.63;1.90;;;13.40;99.90;;;;;;5013849;28;20026;-61
2022/01/01 05:52:48;;;;;;;;;;;13.50;99.90;;;;;;5013558;28;20061;-61
2022/01/01 05:55:13;;;;;;;10.18;2.03;;;13.50;99.90;;;;;;5013397;28;19905;-61
2022/01/01 05:57:39;;;;;;;4.55;2.10;;;13.40;99.90;;;;;;5012864;28;20026;-61
2022/01/01 06:00:08;;;;;;;4.30;2.00;;;13.40;99.90;;;;;;5014001;28;20480;-61
2022/01/01 06:02:43;;;;;;;5.05;2.00;;;13.40;99.90;;;;;;5029302;28;20125;-61
2022/01/01 06:05:10;;;;;;;6.32;2.20;;;13.40;99.90;;;;;;5014241;28;20366;-61
2022/01/01 06:07:36;;;;;;;5.20;2.10;;;13.40;99.90;;;;;;5013061;28;20030;-61
2022/01/01 06:10:03;;;;;;;6.88;2.13;;;13.40;99.90;;;;;;5014179;28;20026;-61
2022/01/01 06:12:28;;;;;;;8.45;2.13;;;13.40;99.90;;;;;;5013677;28;20025;-61
2022/01/01 06:14:54;;;;;;;3.78;2.08;;;13.40;99.90;;;;;;5012878;28;20026;-61
2022/01/01 06:17:19;;;;;;;5.88;1.88;;;13.40;99.90;;;;;;5013122;28;20030;-61
2022/01/01 06:19:45;;;;;;;9.55;2.00;;;13.40;99.90;;;;;;5012885;28;20026;-61
2022/01/01 06:22:11;;;;;;;6.00;2.13;;;13.50;99.90;;;;;;5029375;28;20041;-61
2022/01/01 06:24:37;;;;;;;4.97;2.20;;;13.50;99.90;;;;;;5013596;28;20102;-61
2022/01/01 06:27:03;;;;;;;4.20;2.00;;;13.50;99.90;;;;;;5012646;28;20030;-61
2022/01/01 06:29:28;;;;;;;3.85;1.67;;;13.50;99.90;;;;;;5013572;28;20080;-61
2022/01/01 06:31:54;;;;;;;7.95;2.40;;;13.50;99.90;;;;;;5014013;28;20018;-61
2022/01/01 06:34:19;;;;;;;4.93;1.92;;;13.40;99.90;;;;;;5014368;28;20029;-61
2022/01/01 06:36:45;;;;;;;7.10;2.17;;;13.50;99.90;;;;;;5032566;28;20022;-61
2022/01/01 06:39:11;;;;;;;4.55;1.70;;;13.60;99.90;;;;;;5016530;28;20026;-61
2022/01/01 06:41:37;;;;;;;4.93;2.20;;;13.70;99.90;;;;;;5016712;28;20022;-61
2022/01/01 06:44:02;;;;;;;6.45;2.10;;;13.60;99.90;;;;;;5016290;28;20037;-61
2022/01/01 06:46:28;;;;;;;6.15;1.92;;;13.60;99.90;;;;;;5017882;28;20037;-61
2022/01/01 06:48:54;;;;;;;6.25;1.90;;;13.50;99.90;;;;;;5032998;28;20030;-61
2022/01/01 06:51:19;;;;;;;5.95;2.03;;;13.40;99.90;;;;;;5016374;28;20030;-61
2022/01/01 06:53:45;;;;;;;6.53;2.20;;;13.40;99.90;;;;;;5017060;28;20018;-61
2022/01/01 06:56:11;;;;;;;4.63;2.20;;;13.30;99.90;;;;;;5016024;28;20068;-61
2022/01/01 06:58:38;;;;;;;5.65;2.38;;;13.20;99.90;;;;;;5016074;28;20385;-61
2022/01/01 07:01:04;;;;;;;5.78;2.30;;;13.10;99.90;;;;;;5017574;28;20022;-61
2022/01/01 07:03:30;;;;;;;5.30;2.13;;;13.10;99.90;;;;;;5016135;28;20014;-61
2022/01/01 07:05:55;;;;;;;6.18;2.47;;;13.00;99.90;;;;;;5017249;28;20108;-61
2022/01/01 07:08:21;;;;;;;5.82;2.08;;;13.00;99.90;;;;;;5016362;28;20026;-62
2022/01/01 07:10:47;;;;;;;5.57;2.45;;;12.90;99.90;;;;;;5016634;28;20073;-62
2022/01/01 07:13:14;;;;;;;5.93;2.53;;;12.90;99.90;;;;;;5015361;28;20146;-61
2022/01/01 07:15:39;;;;;;;7.97;2.05;;;12.90;99.90;;;;;;5015515;28;20022;-61
2022/01/01 07:18:05;;;;;;;6.82;2.15;;;12.90;99.90;;;;;;5016370;28;20029;-61
2022/01/01 07:20:31;;;;;;;7.32;2.20;;;12.90;99.90;;;;;;5015235;28;20026;-62
2022/01/01 07:22:57;;;;;;;7.78;2.20;;;12.80;99.90;;;;;;5016404;28;20025;-61
2022/01/01 07:25:22;;;;;;;5.60;2.50;;;12.80;99.90;;;;;;5016575;28;20187;-61
2022/01/01 07:27:48;;;;;;;3.83;2.42;;;12.80;99.90;;;;;;5015867;28;20050;-61
2022/01/01 07:30:13;;;;;;;4.80;2.28;;;12.80;99.90;;;;;;5014697;28;20033;-61
2022/01/01 07:32:45;;;;;;;7.28;2.42;;;12.80;99.90;;;;;;5015986;28;20101;-61
2022/01/01 07:35:12;;;;;;;7.22;2.78;;;12.80;99.90;;;;;;5014762;28;20116;-61
2022/01/01 07:37:38;;;;;;;12.15;2.30;;;12.90;99.90;;;;;;5014637;28;20034;-61
2022/01/01 07:40:06;;;;;;;4.78;2.20;;;12.90;99.90;;;;;;5015889;28;20036;-61
2022/01/01 07:42:32;;;;;;;4.32;2.28;;;12.90;99.90;;;;;;5014744;28;20117;-61
2022/01/01 07:44:59;;;;;;;4.05;1.65;;;12.90;99.90;;;;;;5015918;28;20072;-61
2022/01/01 07:47:25;;;;;;;3.53;2.10;;;12.90;99.90;;;;;;5015516;28;20022;-61
2022/01/01 07:49:51;;;;;;;5.80;2.10;;;12.90;99.90;;;;;;5015931;28;20037;-61
2022/01/01 07:52:17;;;;;;;8.98;2.47;;;12.90;99.90;;;;;;5014674;28;20030;-61
2022/01/01 07:54:42;;;;;;;3.38;2.00;;;12.90;99.90;;;;;;5014329;28;20021;-61
2022/01/01 07:57:08;;;;;;;5.93;2.15;;;12.90;99.90;;;;;;5014401;28;20032;-61
2022/01/01 07:59:34;;;;;;;5.50;2.50;;;12.90;99.90;;;;;;5015474;28;20022;-61
2022/01/01 08:01:59;;;;;;;7.40;2.13;;;13.00;99.90;;;;;;5015409;28;20037;-61
2022/01/01 08:04:25;;;;;;;11.48;2.85;;;12.90;99.90;;;;;;5015157;28;20034;-61
2022/01/01 08:06:50;;;;;;;10.90;4.10;;;12.90;99.90;;;;;;5014401;28;20069;-61
2022/01/01 08:09:16;;;;;;;11.55;3.00;;;12.90;99.90;;;;;;5014749;28;20026;-61
2022/01/01 08:11:42;;;;;;;6.00;3.03;;;13.00;99.90;;;;;;5013924;28;20480;-61
2022/01/01 08:14:08;;;;;;;11.63;5.03;;;12.90;99.90;;;;;;5014154;28;20025;-61
2022/01/01 08:17:05;;;;;;;8.35;3.50;;;13.00;99.90;;;;;;5015434;28;20064;-61
2022/01/01 08:19:31;;;;;;;12.23;3.38;;;13.00;99.90;;;;;;5014453;28;20544;-61
2022/01/01 08:21:57;;;;;;;4.93;2.75;;;13.00;99.90;;;;;;5015166;28;20028;-61
2022/01/01 08:24:24;;;;;;;12.07;4.88;;;13.00;99.90;;;;;;5014188;28;20030;-61
2022/01/01 08:26:50;;;;;;;8.43;4.32;;;13.10;99.90;;;;;;5013935;28;20036;-61
2022/01/01 08:29:17;;;;;;;6.22;2.70;;;13.10;99.90;;;;;;5015349;28;20104;-62
2022/01/01 08:31:43;;;;;;;13.38;6.25;;;13.10;99.90;;;;;;5014348;28;20026;-61
2022/01/01 08:34:08;;;;;;;11.15;3.72;;;13.10;99.90;;;;;;5014036;28;20532;-59
2022/01/01 08:36:34;;;;;;;5.55;2.30;;;13.20;99.90;;;;;;5013787;28;20026;-61
2022/01/01 08:39:00;;;;;;;7.75;2.70;;;13.20;99.90;;;;;;5013880;28;20029;-61
2022/01/01 08:41:26;;;;;;;7.50;2.47;;;13.20;99.90;;;;;;5013640;28;20033;-59
2022/01/01 08:43:52;;;;;;;7.63;2.28;;;13.30;99.90;;;;;;5013371;28;20037;-59
2022/01/01 08:46:18;;;;;;;4.03;2.05;;;13.40;99.90;;;;;;5014108;28;20022;-61
2022/01/01 08:48:44;;;;;;;14.77;5.75;;;13.50;99.90;;;;;;5014386;28;20037;-61
2022/01/01 08:51:18;;;;;;;6.70;3.25;;;13.50;99.90;;;;;;5013428;28;20041;-60
2022/01/01 08:53:44;;;;;;;5.88;2.40;;;13.50;99.90;;;;;;5013812;28;20022;-61
2022/01/01 08:56:10;;;;;;;6.28;2.17;;;13.50;99.90;;;;;;5012928;28;20025;-56
2022/01/01 08:58:36;;;;;;;6.97;2.50;;;13.50;99.90;;;;;;5013290;28;20037;-53
2022/01/01 09:01:03;;;;;;;12.85;5.05;;;13.50;99.90;;;;;;5012946;28;20026;-53
2022/01/01 09:03:30;;;;;;;10.00;4.10;;;13.50;99.90;;;;;;5012695;28;20044;-56
2022/01/01 09:05:55;;;;;;;7.13;2.80;;;13.60;99.90;;;;;;5013794;28;20021;-56
2022/01/01 09:08:21;;;;;;;5.63;2.55;;;13.60;99.90;;;;;;5013109;28;20108;-55
2022/01/01 09:10:47;;;;;;;19.48;7.45;;;13.60;99.90;;;;;;5012478;28;20026;-56
2022/01/01 09:13:13;;;;;;;9.80;3.17;;;13.70;99.90;;;;;;5012535;28;20029;-56
2022/01/01 09:15:39;;;;;;;10.85;5.72;;;13.90;99.90;;;;;;5014063;28;20026;-53
2022/01/01 09:18:04;;;;;;;7.18;2.83;;;13.90;99.90;;;;;;5013162;28;20069;-51
2022/01/01 09:20:30;;;;;;;3.75;3.00;;;14.00;99.90;;;;;;5014004;28;20072;-52
2022/01/01 09:22:55;;;;;;;6.00;3.33;;;14.00;99.90;;;;;;5012403;28;20030;-56
2022/01/01 09:25:21;;;;;;;11.43;4.85;;;14.00;99.90;;;;;;5013899;28;20030;-54
2022/01/01 09:27:47;;;;;;;12.00;4.60;;;14.00;99.90;;;;;;5012365;28;20121;-56
2022/01/01 09:30:12;;;;;;;28.08;14.45;;;14.00;99.90;;;;;;5012241;28;20492;-56
2022/01/01 09:32:38;;;;;;;16.63;7.85;;;14.00;99.90;;;;;;5012674;28;20079;-58
2022/01/01 09:35:05;;;;;;;22.00;8.77;;;14.00;99.90;;;;;;5012267;28;20026;-54
2022/01/01 09:37:32;;;;;;;13.27;6.57;;;14.00;99.90;;;;;;5012615;28;20049;-53
2022/01/01 09:39:58;;;;;;;29.33;10.55;;;14.00;99.90;;;;;;5013728;28;20084;-58
2022/01/01 09:42:24;;;;;;;57.13;21.23;;;14.00;99.90;;;;;;5012189;28;20030;-54
2022/01/01 09:44:52;;;;;;;23.35;8.57;;;14.00;99.90;;;;;;5012789;28;20030;-54
2022/01/01 09:47:18;;;;;;;52.50;19.30;;;14.00;99.90;;;;;;5012009;28;20396;-53
2022/01/01 09:49:43;;;;;;;39.13;15.48;;;14.00;99.90;;;;;;5012888;28;20037;-55
2022/01/01 09:52:09;;;;;;;25.48;10.52;;;14.00;99.90;;;;;;5012530;28;20038;-54
2022/01/01 09:54:36;;;;;;;23.67;8.82;;;14.00;99.90;;;;;;5012070;28;20026;-53
2022/01/01 09:57:03;;;;;;;48.92;17.83;;;14.00;99.90;;;;;;5012660;28;20068;-58
2022/01/01 09:59:54;;;;;;;24.83;10.38;;;14.10;99.90;;;;;;5011956;28;20109;-53
2022/01/01 10:02:20;;;;;;;15.13;6.07;;;14.10;99.90;;;;;;5013585;28;20022;-52
2022/01/01 10:04:48;;;;;;;22.95;10.38;;;14.10;99.90;;;;;;5012083;28;20053;-52
2022/01/01 10:07:14;;;;;;;23.52;8.75;;;14.20;99.90;;;;;;5011980;28;20030;-54
2022/01/01 10:09:40;;;;;;;21.08;7.63;;;14.20;99.90;;;;;;5014798;28;20080;-51
2022/01/01 10:12:09;;;;;;;49.72;20.00;;;14.20;99.90;;;;;;5016945;28;20113;-53
2022/01/01 10:14:48;;;;;;;41.67;16.73;;;14.20;99.90;;;;;;5017003;28;20021;-53
2022/01/01 10:17:13;;;;;;;8.02;3.95;;;14.20;99.90;;;;;;5016910;28;20436;-56
2022/01/01 10:19:40;;;;;;;8.00;3.33;;;14.10;99.90;;;;;;5016873;28;20029;-54
2022/01/01 10:22:06;;;;;;;8.13;3.67;;;14.10;99.90;;;;;;5015866;28;20388;-53
2022/01/01 10:30:01;;;;;;;18.15;8.70;;;14.20;99.90;;;;;;5016980;28;20073;-52
2022/01/01 10:32:26;;;;;;;17.10;6.80;;;14.20;99.90;;;;;;5016649;28;20026;-54
2022/01/01 10:34:52;;;;;;;21.55;9.43;;;14.20;99.90;;;;;;5015709;28;20105;-56
2022/01/01 10:37:18;;;;;;;22.58;8.50;;;14.20;99.90;;;;;;5015206;28;20022;-53
2022/01/01 10:39:51;;;;;;;28.42;12.20;;;14.20;99.90;;;;;;5015255;28;20116;-52
2022/01/01 10:42:18;;;;;;;12.23;6.05;;;14.20;99.90;;;;;;5016047;28;20033;-55
2022/01/01 10:44:52;;;;;;;14.65;6.68;;;14.30;99.90;;;;;;5016708;28;20046;-52
2022/01/01 10:47:25;;;;;;;25.50;12.25;;;14.30;99.90;;;;;;5016452;28;20026;-52
2022/01/01 10:50:03;;;;;;;13.68;7.32;;;14.40;99.90;;;;;;5016160;28;20030;-52
2022/01/01 10:52:32;;;;;;;16.40;7.22;;;14.30;99.90;;;;;;5015320;28;20473;-52
2022/01/01 10:55:03;;;;;;;6.45;3.83;;;14.30;99.90;;;;;;5015838;28;20029;-56
2022/01/01 10:57:35;;;;;;;10.82;4.72;;;14.30;99.90;;;;;;5015933;28;20543;-55
2022/01/01 11:00:12;;;;;;;10.70;4.78;;;14.20;99.90;;;;;;5014963;28;20112;-52
2022/01/01 11:02:41;;;;;;;15.60;5.93;;;14.30;99.90;;;;;;5015099;28;20026;-56
2022/01/01 11:05:07;;;;;;;9.00;4.45;;;14.30;99.90;;;;;;5015232;28;20026;-58
2022/01/01 11:07:34;;;;;;;11.20;4.53;;;14.30;99.90;;;;;;5015880;28;20040;-54
2022/01/01 11:10:00;;;;;;;11.75;4.32;;;14.30;99.90;;;;;;5015024;28;20029;-52
2022/01/01 11:12:28;;;;;;;7.95;3.63;;;14.30;99.90;;;;;;5015197;28;20109;-53
2022/01/01 11:14:55;;;;;;;11.10;4.85;;;14.20;99.90;;;;;;5015850;28;20067;-55
2022/01/01 11:17:21;;;;;;;16.65;7.65;;;14.20;99.90;;;;;;5014561;28;20045;-52
2022/01/01 11:19:47;;;;;;;8.27;4.18;;;14.20;99.90;;;;;;5014254;28;20037;-55
2022/01/01 11:22:13;;;;;;;7.40;4.03;;;14.20;99.90;;;;;;5015047;28;20041;-55
2022/01/01 11:24:49;;;;;;;10.55;4.22;;;14.20;99.90;;;;;;5014906;28;20124;-55
2022/01/01 11:27:16;;;;;;;23.58;10.45;;;14.20;99.90;;;;;;5014494;28;20029;-55
2022/01/01 11:29:50;;;;;;;16.33;8.20;;;14.20;99.90;;;;;;5014283;28;20025;-54
2022/01/01 11:32:20;;;;;;;13.13;5.90;;;14.10;99.90;;;;;;5015520;28;20022;-54
2022/01/01 11:34:49;;;;;;;16.75;5.43;;;14.20;99.90;;;;;;5014965;28;20036;-54
2022/01/01 11:37:16;;;;;;;6.63;4.10;;;14.20;99.90;;;;;;5014422;28;20071;-57
2022/01/01 11:39:43;;;;;;;12.60;6.07;;;14.20;99.90;;;;;;5014924;28;20030;-56
2022/01/01 11:42:11;;;;;;;60.28;26.40;;;14.20;99.90;;;;;;5013789;28;20065;-55
2022/01/01 11:44:41;;;;;;;29.70;15.93;;;14.30;99.90;;;;;;5028387;28;20026;-53
2022/01/01 11:47:15;;;;;;;10.65;7.22;;;14.40;99.90;;;;;;5015216;28;20030;-55
2022/01/01 11:49:40;;;;;;;6.07;3.35;;;14.50;99.90;;;;;;5013940;28;20044;-55
2022/01/01 11:52:06;;;;;;;6.55;3.00;;;14.50;99.90;;;;;;5015038;28;20117;-55
2022/01/01 11:54:33;;;;;;;5.82;2.42;;;14.60;99.90;;;;;;5013949;28;20029;-55
2022/01/01 11:57:19;;;;;;;8.60;3.88;;;14.70;99.90;;;;;;5015052;28;20033;-56
2022/01/01 11:59:55;;;;;;;4.32;2.90;;;14.70;99.90;;;;;;5015087;28;20061;-51
2022/01/01 12:02:23;;;;;;;5.18;2.35;;;14.80;99.90;;;;;;5013874;28;20029;-54
2022/01/01 12:04:55;;;;;;;4.55;2.40;;;14.90;99.90;;;;;;5014928;28;20030;-56
2022/01/01 12:07:21;;;;;;;6.07;3.08;;;15.00;99.90;;;;;;5025749;28;20026;-55
2022/01/01 12:10:13;;;;;;;5.15;2.53;;;15.10;99.90;;;;;;5025097;28;20037;-56
2022/01/01 12:13:17;;;;;;;10.32;4.82;;;15.10;99.90;;;;;;5013649;28;20161;-53
2022/01/01 12:15:49;;;;;;;13.07;5.80;;;15.00;99.90;;;;;;5018923;28;20025;-55
2022/01/01 12:18:21;;;;;;;14.13;7.50;;;14.80;99.90;;;;;;5033787;28;20136;-58
2022/01/01 12:20:52;;;;;;;15.55;8.35;;;14.50;99.90;;;;;;5033219;28;20025;-54
2022/01/01 12:23:23;;;;;;;17.05;8.90;;;14.40;99.90;;;;;;5034277;28;20032;-55
2022/01/01 12:25:51;;;;;;;17.92;8.80;;;14.20;99.90;;;;;;5033101;28;20033;-54
2022/01/01 12:28:21;;;;;;;17.00;8.60;;;14.00;99.90;;;;;;5033275;28;20041;-54
2022/01/01 12:30:51;;;;;;;18.83;8.32;;;13.90;99.90;;;;;;5018305;28;20117;-57
2022/01/01 12:33:41;;;;;;;19.30;7.32;;;14.00;99.90;;;;;;5014262;28;20104;-55
2022/01/01 12:36:12;;;;;;;18.10;7.70;;;14.10;99.90;;;;;;5014291;28;20018;-56
2022/01/01 12:38:39;;;;;;;14.98;7.85;;;14.10;99.90;;;;;;5013357;28;20026;-53
2022/01/01 12:41:19;;;;;;;16.35;8.00;;;14.10;99.90;;;;;;5013477;28;20029;-55
2022/01/01 12:43:56;;;;;;;20.30;9.63;;;13.90;99.90;;;;;;5014202;28;20025;-58
2022/01/01 12:46:24;;;;;;;20.60;9.80;;;13.60;99.90;;;;;;5013317;28;20030;-56
2022/01/01 12:48:51;;;;;;;21.90;9.52;;;13.50;99.90;;;;;;5013151;28;20497;-58
2022/01/01 12:51:21;;;;;;;19.70;9.77;;;13.50;99.90;;;;;;5012804;28;20559;-54